Time;durP1;ratioP1;P1;durP2;ratioP2;P2;SDS_P1;SDS_P2;PMS_P1;PMS_P2;Temp;Humidity;BMP_temperature;BMP_pressure;BME280_temperature;BME280_humidity;BME280_pressure;Samples;Min_cycle;Max_cycle;Signal;HPM_P1;HPM_P2
2023/10/09 07:27:59;;;;;;;;;;;;;;;;;;;;;
2023/10/09 08:03:24;;;;;;;;;;;;;;;20.94;27.49;101673.41;109256;1263;67721;-86
2023/10/09 08:06:06;;;;;;;;;;;;;;;20.95;27.60;101668.08;109260;1264;67181;-87
2023/10/09 08:16:36;;;;;;;;;;;;;;;20.97;27.53;101650.38;109087;1263;67911;-84
2023/10/09 08:19:20;;;;;;;;;;;;;;;20.97;27.58;101644.30;108902;1266;68111;-86
2023/10/09 08:22:07;;;;;;;;;;;;;;;20.99;27.45;101640.70;108995;1268;75295;-86
2023/10/09 08:24:50;;;;;;;;;;;;;;;20.98;27.44;101646.70;109030;1269;82549;-86
2023/10/09 08:33:39;;;;;;;;;;;;;;;20.96;27.35;101652.73;109061;1265;67211;-86
2023/10/09 08:38:46;;;;;;;;;;;;;;;20.97;27.42;101650.79;109264;1263;80276;-87
2023/10/09 08:52:57;;;;;;;;;;;;;;;21.03;27.40;101633.25;109010;1264;82129;-88
2023/10/09 08:55:25;;;;;;;;;;;;;;;21.03;27.44;101631.66;108977;1264;72765;-86
2023/10/09 08:57:52;;;;;;;;;;;;;;;21.04;27.55;101633.67;109020;1265;66989;-83
2023/10/09 09:00:23;;;;;;;;;;;;;;;21.05;27.60;101633.39;108948;1265;67515;-85
2023/10/09 09:03:00;;;;;;;;;;;;;;;21.06;27.55;101635.00;108975;1265;75209;-85
2023/10/09 09:05:28;;;;;;;;;;;;;;;21.08;27.69;101638.45;109000;1265;82625;-86
2023/10/09 09:07:56;;;;;;;;;;;;;;;21.08;27.75;101636.05;109030;1265;72382;-85
2023/10/09 09:10:34;;;;;;;;;;;;;;;21.07;27.65;101634.48;108920;1271;67639;-85
2023/10/09 09:13:03;;;;;;;;;;;;;;;21.07;27.54;101631.36;108942;1265;67616;-85
2023/10/09 09:15:29;;;;;;;;;;;;;;;21.05;27.47;101623.47;108942;1265;75102;-84
2023/10/09 09:18:21;;;;;;;;;;;;;;;21.05;27.43;101619.10;108893;1265;67781;-84
2023/10/09 09:20:47;;;;;;;;;;;;;;;21.04;27.31;101612.70;108984;1265;72463;-84
2023/10/09 09:23:12;;;;;;;;;;;;;;;21.04;27.35;101615.61;108982;1265;67540;-85
2023/10/09 09:28:19;;;;;;;;;;;;;;;21.04;27.47;101615.05;109420;1261;74815;-87
2023/10/09 09:30:50;;;;;;;;;;;;;;;21.04;27.46;101609.54;109308;1261;82638;-86
2023/10/09 10:11:54;;;;;;;;;;;;;;;20.43;26.54;101541.08;109395;1262;74106;-88
2023/10/09 10:14:28;;;;;;;;;;;;;;;20.50;26.45;101533.27;109325;1263;83029;-88
2023/10/09 10:16:59;;;;;;;;;;;;;;;20.54;26.71;101530.80;109320;1263;73216;-87
2023/10/09 10:19:25;;;;;;;;;;;;;;;20.59;26.51;101517.14;109126;1264;67252;-88
2023/10/09 10:22:02;;;;;;;;;;;;;;;20.62;26.42;101502.41;109383;1262;67873;-89
2023/10/09 10:24:31;;;;;;;;;;;;;;;20.67;26.49;101505.77;109327;1262;76365;-89
2023/10/09 10:27:27;;;;;;;;;;;;;;;20.71;26.56;101499.95;109419;1262;82878;-86
2023/10/09 10:30:24;;;;;;;;;;;;;;;20.74;26.55;101492.86;109379;1262;72996;-87
2023/10/09 10:32:57;;;;;;;;;;;;;;;20.78;26.53;101495.65;109162;1263;67553;-87
2023/10/09 10:35:32;;;;;;;;;;;;;;;20.80;26.49;101487.16;109264;1262;67861;-88
2023/10/09 10:38:11;;;;;;;;;;;;;;;20.83;26.38;101483.57;109218;1265;75452;-87
2023/10/09 10:40:46;;;;;;;;;;;;;;;20.85;26.47;101475.80;109093;1264;82920;-88
2023/10/09 10:43:58;;;;;;;;;;;;;;;;;;;;;
2023/10/09 11:03:13;;;;;;;;;;;;;;;21.02;26.52;101385.17;109111;1264;67271;-89
2023/10/09 11:05:42;;;;;;;;;;;;;;;21.03;26.65;101384.47;109266;1264;75563;-89
2023/10/09 11:08:11;;;;;;;;;;;;;;;21.03;26.48;101377.26;109078;1264;67861;-90
2023/10/09 11:16:14;;;;;;;;;;;;;;;21.03;26.48;101358.48;109504;1261;67456;-86
2023/10/09 11:18:48;;;;;;;;;;;;;;;21.04;26.49;101347.44;109359;1262;74480;-88
2023/10/09 11:24:24;;;;;;;;;;;;;;;21.04;26.55;101338.80;109481;1261;71730;-87
2023/10/09 11:27:18;;;;;;;;;;;;;;;21.05;26.37;101334.56;109469;1262;67857;-87
2023/10/09 11:32:22;;;;;;;;;;;;;;;21.06;26.53;101320.69;109406;1263;75782;-87
2023/10/09 12:19:35;;;;;;;;;;;;;;;21.18;26.82;101233.46;108986;1263;551707;-90
2023/10/09 12:25:15;;;;;;;;;;;;;;;21.18;26.84;101228.65;108457;1262;553169;-89
2023/10/09 12:36:49;;;;;;;;;;;;;;;21.18;26.77;101223.88;108772;1264;552017;-92
2023/10/09 12:41:58;;;;;;;;;;;;;;;21.20;26.87;101216.88;109374;1262;66944;-89
2023/10/09 12:44:27;;;;;;;;;;;;;;;21.20;26.73;101204.70;109187;1263;74955;-89
2023/10/09 12:52:30;;;;;;;;;;;;;;;21.22;26.93;101212.74;108899;1263;556974;-89
2023/10/09 13:12:22;;;;;;;;;;;;;;;21.22;26.82;101174.62;108935;1265;553594;-89
2023/10/09 13:17:43;;;;;;;;;;;;;;;21.21;26.90;101168.02;108732;1264;556903;-90
2023/10/09 13:22:59;;;;;;;;;;;;;;;21.18;26.81;101149.77;108330;1263;557748;-89
2023/10/09 15:00:14;;;;;;;;;;;;;;;21.00;26.31;100993.89;109098;1264;67149;-88
2023/10/09 15:13:30;;;;;;;;;;;;;;;20.89;26.49;101010.18;108839;1263;552373;-88
2023/10/09 15:15:56;;;;;;;;;;;;;;;20.91;26.34;101008.88;109311;1263;67539;-90
2023/10/09 15:18:21;;;;;;;;;;;;;;;20.91;26.37;101009.17;109221;1262;67216;-89
2023/10/09 15:23:23;;;;;;;;;;;;;;;20.92;26.45;101002.86;108823;1263;557516;-91
2023/10/09 15:25:51;;;;;;;;;;;;;;;20.92;26.47;101004.29;108365;1263;556081;-89
2023/10/09 15:28:19;;;;;;;;;;;;;;;20.93;26.36;101005.20;109205;1263;67729;-90
2023/10/09 15:41:53;;;;;;;;;;;;;;;20.92;26.21;100986.63;109036;1262;551917;-89
2023/10/09 15:44:18;;;;;;;;;;;;;;;20.91;26.25;100978.18;109373;1263;67589;-89
2023/10/09 15:46:47;;;;;;;;;;;;;;;20.91;26.32;100974.55;109424;1262;67592;-89
2023/10/09 15:49:13;;;;;;;;;;;;;;;20.91;26.18;100971.80;109448;1262;67666;-89
2023/10/09 15:51:39;;;;;;;;;;;;;;;20.92;26.26;100965.66;109391;1263;67532;-89
2023/10/09 15:54:04;;;;;;;;;;;;;;;20.92;26.19;100959.42;109461;1263;67614;-89
2023/10/09 15:58:59;;;;;;;;;;;;;;;20.94;26.14;100942.44;109032;1262;552662;-89
2023/10/09 16:01:25;;;;;;;;;;;;;;;20.94;26.37;100943.57;109367;1263;66862;-90
2023/10/09 16:03:53;;;;;;;;;;;;;;;20.94;26.24;100945.77;109432;1263;67445;-90
2023/10/09 16:08:55;;;;;;;;;;;;;;;20.93;26.26;100956.40;109256;1264;76038;-89
2023/10/09 16:13:53;;;;;;;;;;;;;;;20.94;26.23;100957.13;109020;1263;558088;-89
2023/10/09 16:16:25;;;;;;;;;;;;;;;20.95;26.32;100956.46;109469;1263;67498;-90
2023/10/09 16:18:55;;;;;;;;;;;;;;;20.95;26.20;100953.55;109507;1263;67858;-89
2023/10/09 16:21:27;;;;;;;;;;;;;;;20.95;26.22;100953.13;109514;1263;75158;-92
2023/10/09 16:23:53;;;;;;;;;;;;;;;20.95;26.17;100948.93;109492;1262;82933;-89
2023/10/09 16:26:19;;;;;;;;;;;;;;;20.95;26.20;100945.06;109482;1262;67591;-89
2023/10/09 16:28:48;;;;;;;;;;;;;;;20.96;26.25;100942.30;109482;1263;67608;-89
2023/10/09 16:31:18;;;;;;;;;;;;;;;20.96;26.33;100941.64;108967;1263;557606;-89
2023/10/09 16:33:44;;;;;;;;;;;;;;;20.96;26.39;100938.20;109340;1262;75212;-88
2023/10/09 16:36:09;;;;;;;;;;;;;;;20.96;26.19;100933.77;109362;1262;67486;-88
2023/10/09 16:38:39;;;;;;;;;;;;;;;20.96;26.31;100934.89;109314;1263;67521;-88
2023/10/09 16:41:08;;;;;;;;;;;;;;;20.96;26.35;100930.58;109271;1263;66830;-87
2023/10/09 16:43:33;;;;;;;;;;;;;;;20.97;26.32;100934.73;109307;1265;67550;-88
2023/10/09 16:46:00;;;;;;;;;;;;;;;20.97;26.31;100934.95;109375;1263;67792;-88
2023/10/09 16:48:29;;;;;;;;;;;;;;;20.97;26.26;100932.04;109353;1263;67511;-87
2023/10/09 16:50:55;;;;;;;;;;;;;;;20.97;26.31;100922.36;109334;1262;72381;-87
2023/10/09 16:53:20;;;;;;;;;;;;;;;20.97;26.34;100925.68;109317;1263;66911;-93
2023/10/09 16:55:48;;;;;;;;;;;;;;;20.97;26.30;100936.48;109280;1263;68011;-88
2023/10/09 16:58:15;;;;;;;;;;;;;;;20.96;26.56;100939.86;109341;1263;67227;-88
2023/10/09 17:00:40;;;;;;;;;;;;;;;20.97;26.39;100941.64;109368;1262;67555;-88
2023/10/09 17:03:08;;;;;;;;;;;;;;;20.97;26.48;100938.27;109183;1263;67630;-88
2023/10/09 17:05:36;;;;;;;;;;;;;;;20.97;26.53;100932.08;109310;1262;67394;-88
2023/10/09 17:08:02;;;;;;;;;;;;;;;20.97;26.39;100928.39;109249;1263;67556;-88
2023/10/09 17:10:28;;;;;;;;;;;;;;;20.97;26.40;100924.80;109200;1263;67663;-87
2023/10/09 17:21:35;;;;;;;;;;;;;;;20.97;26.49;100936.38;109338;1264;67570;-90
2023/10/09 17:26:45;;;;;;;;;;;;;;;20.96;26.55;100933.77;109366;1264;82742;-89
2023/10/09 17:42:56;;;;;;;;;;;;;;;20.97;26.43;100894.98;107234;1263;3198630;-89
2023/10/09 17:45:23;;;;;;;;;;;;;;;20.96;26.58;100894.11;109325;1263;67646;-89
2023/10/09 17:47:52;;;;;;;;;;;;;;;20.97;26.54;100896.27;109421;1262;67631;-89
2023/10/09 17:50:21;;;;;;;;;;;;;;;20.97;26.54;100899.64;109396;1263;67444;-89
2023/10/09 17:52:46;;;;;;;;;;;;;;;20.97;26.45;100897.95;109276;1263;82375;-89
2023/10/09 17:55:13;;;;;;;;;;;;;;;20.96;26.51;100898.87;109207;1263;66895;-89
2023/10/09 17:57:39;;;;;;;;;;;;;;;20.96;26.55;100901.52;109411;1263;66867;-89
2023/10/09 18:00:08;;;;;;;;;;;;;;;20.97;26.52;100898.20;109281;1263;67623;-88
2023/10/09 18:02:35;;;;;;;;;;;;;;;20.96;26.56;100898.01;109401;1263;76117;-89
2023/10/09 18:05:01;;;;;;;;;;;;;;;20.96;26.46;100898.66;109418;1262;67578;-89
2023/10/09 18:07:26;;;;;;;;;;;;;;;20.96;26.65;100896.36;109224;1263;66858;-89
2023/10/09 18:09:52;;;;;;;;;;;;;;;20.96;26.75;100900.14;109248;1263;67509;-89
2023/10/09 18:12:19;;;;;;;;;;;;;;;20.96;26.66;100913.11;109270;1263;67528;-89
2023/10/09 18:17:20;;;;;;;;;;;;;;;20.96;26.47;100910.13;109442;1262;82073;-89
2023/10/09 18:19:51;;;;;;;;;;;;;;;20.96;26.58;100908.90;109499;1262;72079;-89
2023/10/09 18:22:17;;;;;;;;;;;;;;;20.96;26.53;100911.91;109330;1262;67543;-89
2023/10/09 18:24:45;;;;;;;;;;;;;;;20.96;26.58;100899.74;109365;1263;66978;-89
2023/10/09 18:27:14;;;;;;;;;;;;;;;20.96;26.38;100896.37;109587;1262;75306;-89
2023/10/09 18:29:39;;;;;;;;;;;;;;;20.96;26.59;100887.31;109399;1263;82752;-89
2023/10/09 18:32:30;;;;;;;;;;;;;;;20.96;26.50;100884.24;109010;1263;553154;-88
2023/10/09 18:34:56;;;;;;;;;;;;;;;20.96;26.62;100885.63;109397;1262;67412;-88
2023/10/09 18:37:23;;;;;;;;;;;;;;;20.96;26.63;100888.90;109320;1262;67438;-88
2023/10/09 18:39:49;;;;;;;;;;;;;;;20.96;26.43;100883.27;109468;1262;67602;-88
2023/10/09 18:42:17;;;;;;;;;;;;;;;20.96;26.67;100873.74;109306;1262;67512;-89
2023/10/09 18:45:07;;;;;;;;;;;;;;;20.96;26.61;100864.34;109481;1263;72038;-88
2023/10/09 18:47:37;;;;;;;;;;;;;;;20.93;26.62;100853.63;109418;1263;66807;-88
2023/10/09 18:50:24;;;;;;;;;;;;;;;20.86;26.41;100850.73;109120;1262;552810;-88
2023/10/09 18:52:51;;;;;;;;;;;;;;;20.78;26.50;100847.56;109493;1262;76198;-88
2023/10/09 18:55:18;;;;;;;;;;;;;;;20.69;26.66;100847.88;109474;1263;81801;-88
2023/10/09 18:57:43;;;;;;;;;;;;;;;20.59;26.59;100847.09;109465;1263;67463;-88
2023/10/09 19:02:52;;;;;;;;;;;;;;;20.43;26.80;100851.02;109284;1264;67433;-88
2023/10/09 19:05:19;;;;;;;;;;;;;;;20.35;26.65;100851.70;109276;1264;75332;-90
2023/10/09 19:07:44;;;;;;;;;;;;;;;20.28;26.65;100842.80;109233;1264;67041;-90
2023/10/09 19:10:10;;;;;;;;;;;;;;;20.21;26.78;100838.71;109270;1264;67607;-90
2023/10/09 19:12:40;;;;;;;;;;;;;;;20.17;26.93;100842.19;109253;1264;67677;-89
2023/10/09 19:15:06;;;;;;;;;;;;;;;20.12;26.95;100848.16;109262;1264;67150;-90
2023/10/09 19:20:29;;;;;;;;;;;;;;;20.15;27.10;100857.66;109000;1264;557491;-87
2023/10/09 19:23:16;;;;;;;;;;;;;;;20.19;27.07;100856.02;108865;1264;552271;-89
2023/10/09 19:25:42;;;;;;;;;;;;;;;20.24;27.15;100855.02;109325;1264;67553;-89
2023/10/09 19:28:08;;;;;;;;;;;;;;;20.27;27.03;100849.59;109345;1263;67588;-89
2023/10/09 19:30:34;;;;;;;;;;;;;;;20.32;27.21;100853.01;109142;1264;67603;-89
2023/10/09 19:33:01;;;;;;;;;;;;;;;20.36;26.91;100851.45;109316;1263;67566;-89
2023/10/09 19:35:53;;;;;;;;;;;;;;;20.39;26.99;100847.39;109515;1261;71959;-92
2023/10/09 19:41:05;;;;;;;;;;;;;;;20.47;27.11;100836.25;109471;1264;67503;-89
2023/10/09 19:43:31;;;;;;;;;;;;;;;20.49;27.09;100831.30;109472;1263;75070;-88
2023/10/09 19:46:05;;;;;;;;;;;;;;;20.51;27.16;100829.09;109351;1263;67139;-88
2023/10/09 19:48:34;;;;;;;;;;;;;;;20.53;27.20;100831.04;109354;1263;72588;-88
2023/10/09 19:51:02;;;;;;;;;;;;;;;20.55;27.31;100836.52;109343;1262;67557;-89
2023/10/09 19:56:11;;;;;;;;;;;;;;;20.58;27.13;100822.59;109013;1264;557424;-89
2023/10/09 19:58:39;;;;;;;;;;;;;;;20.59;27.18;100811.04;109471;1263;67435;-88
2023/10/09 20:01:09;;;;;;;;;;;;;;;20.61;27.06;100816.98;109254;1262;72413;-89
2023/10/09 20:06:11;;;;;;;;;;;;;;;20.63;27.15;100844.55;109073;1262;555377;-89
2023/10/09 20:08:36;;;;;;;;;;;;;;;20.64;27.14;100841.29;109508;1263;74955;-89
2023/10/09 20:11:06;;;;;;;;;;;;;;;20.65;27.14;100844.27;109316;1263;67512;-89
2023/10/09 20:15:57;;;;;;;;;;;;;;;20.66;27.17;100861.21;109078;1263;552804;-88
2023/10/09 20:18:22;;;;;;;;;;;;;;;20.67;27.13;100858.45;109429;1262;67822;-89
2023/10/09 20:20:52;;;;;;;;;;;;;;;20.68;27.32;100856.63;109323;1263;67557;-88
2023/10/09 20:26:04;;;;;;;;;;;;;;;20.68;27.11;100856.41;109285;1264;72954;-89
2023/10/09 20:28:30;;;;;;;;;;;;;;;20.69;27.12;100863.06;109329;1264;67332;-89
2023/10/09 20:31:01;;;;;;;;;;;;;;;20.69;27.24;100860.36;109139;1264;67516;-89
2023/10/09 20:33:27;;;;;;;;;;;;;;;20.69;27.26;100860.92;109135;1263;75302;-89
2023/10/09 20:35:56;;;;;;;;;;;;;;;20.70;27.26;100846.20;109285;1264;67484;-88
2023/10/09 20:40:58;;;;;;;;;;;;;;;20.71;27.28;100844.25;109006;1263;552342;-89
2023/10/09 20:43:24;;;;;;;;;;;;;;;20.71;27.29;100845.94;109384;1263;66868;-89
2023/10/09 20:45:49;;;;;;;;;;;;;;;20.71;27.19;100849.72;109496;1263;66962;-88
2023/10/09 20:51:04;;;;;;;;;;;;;;;20.72;27.42;100838.58;109037;1262;552019;-89
2023/10/09 20:53:34;;;;;;;;;;;;;;;20.72;27.18;100824.73;109282;1263;67508;-87
2023/10/09 20:55:59;;;;;;;;;;;;;;;20.73;27.22;100829.53;109469;1263;66878;-88
2023/10/09 20:58:25;;;;;;;;;;;;;;;20.73;27.09;100827.76;109248;1263;67482;-88
2023/10/09 21:00:51;;;;;;;;;;;;;;;20.73;27.15;100837.87;109464;1263;67080;-88
2023/10/09 21:03:18;;;;;;;;;;;;;;;20.73;27.30;100848.30;109206;1263;66851;-88
2023/10/09 21:05:43;;;;;;;;;;;;;;;20.73;27.29;100848.98;109189;1263;66851;-89
2023/10/09 21:10:55;;;;;;;;;;;;;;;20.73;27.45;100865.48;109020;1262;556075;-88
2023/10/09 21:13:21;;;;;;;;;;;;;;;20.74;27.41;100856.85;109494;1263;82841;-87
2023/10/09 21:15:46;;;;;;;;;;;;;;;20.74;27.52;100842.08;109378;1263;67557;-87
2023/10/09 21:20:45;;;;;;;;;;;;;;;20.74;27.37;100835.73;109069;1263;557549;-89
2023/10/09 21:23:20;;;;;;;;;;;;;;;20.73;27.24;100838.95;109405;1264;67519;-92
2023/10/09 21:25:45;;;;;;;;;;;;;;;20.74;27.16;100840.95;109515;1263;82920;-88
2023/10/09 21:28:11;;;;;;;;;;;;;;;20.74;27.26;100842.78;109338;1264;67625;-88
2023/10/09 21:30:37;;;;;;;;;;;;;;;20.74;27.42;100838.70;109355;1262;67535;-89
2023/10/09 21:33:03;;;;;;;;;;;;;;;20.74;27.18;100833.38;109496;1264;67564;-88
2023/10/09 21:35:28;;;;;;;;;;;;;;;20.74;27.38;100832.25;109474;1262;67290;-88
2023/10/09 21:38:15;;;;;;;;;;;;;;;;;;;;;
2023/10/09 21:40:43;;;;;;;;;;;;;;;20.74;27.38;100846.83;109010;1263;552499;-89
2023/10/09 21:43:09;;;;;;;;;;;;;;;20.74;27.34;100844.23;109385;1262;67614;-89
2023/10/09 21:45:38;;;;;;;;;;;;;;;20.74;27.27;100837.33;109612;1263;67422;-89
2023/10/09 21:48:06;;;;;;;;;;;;;;;20.75;27.34;100829.10;109604;1262;83709;-89
2023/10/09 21:50:31;;;;;;;;;;;;;;;20.75;27.36;100831.74;109608;1262;71717;-89
2023/10/09 21:55:43;;;;;;;;;;;;;;;20.75;27.18;100826.95;109009;1263;557674;-88
2023/10/09 21:58:10;;;;;;;;;;;;;;;20.74;27.34;100821.26;109473;1263;67515;-88
2023/10/09 22:00:36;;;;;;;;;;;;;;;20.74;27.42;100818.76;109147;1263;83733;-88
2023/10/09 22:03:07;;;;;;;;;;;;;;;20.74;27.39;100814.52;109369;1263;67512;-89
2023/10/09 22:05:41;;;;;;;;;;;;;;;20.74;27.43;100811.45;109216;1263;67627;-89
2023/10/09 22:08:10;;;;;;;;;;;;;;;20.74;27.32;100805.66;109258;1263;66913;-88
2023/10/09 22:10:36;;;;;;;;;;;;;;;20.74;27.40;100810.58;109275;1266;74998;-89
2023/10/09 22:13:01;;;;;;;;;;;;;;;20.74;27.30;100808.02;109274;1263;67482;-89
2023/10/09 22:15:26;;;;;;;;;;;;;;;20.74;27.24;100806.48;109345;1263;67307;-89
2023/10/09 22:17:53;;;;;;;;;;;;;;;20.73;27.34;100809.91;109378;1263;67536;-88
2023/10/09 22:20:23;;;;;;;;;;;;;;;20.73;27.35;100815.53;109395;1263;66852;-88
2023/10/09 22:25:28;;;;;;;;;;;;;;;20.73;27.29;100807.24;109460;1262;82072;-88
2023/10/09 22:28:02;;;;;;;;;;;;;;;20.73;27.32;100808.22;109432;1262;72197;-89
2023/10/09 22:30:33;;;;;;;;;;;;;;;20.72;27.09;100808.58;109348;1262;66857;-89
2023/10/09 22:33:02;;;;;;;;;;;;;;;20.72;27.19;100807.60;109266;1262;67754;-89
2023/10/09 22:35:35;;;;;;;;;;;;;;;20.73;27.16;100808.32;109337;1262;75005;-89
2023/10/09 22:38:07;;;;;;;;;;;;;;;20.72;27.39;100811.23;109485;1262;83819;-89
2023/10/09 22:40:38;;;;;;;;;;;;;;;20.72;27.31;100807.86;109301;1263;72481;-89
2023/10/09 22:43:04;;;;;;;;;;;;;;;20.72;27.15;100810.91;109436;1262;67402;-88
2023/10/09 22:45:33;;;;;;;;;;;;;;;20.71;27.39;100804.46;109438;1262;67723;-88
2023/10/09 22:47:59;;;;;;;;;;;;;;;20.71;27.22;100797.63;109491;1262;75431;-89
2023/10/09 22:50:37;;;;;;;;;;;;;;;20.72;27.41;100796.25;109440;1262;67048;-88
2023/10/09 22:53:11;;;;;;;;;;;;;;;20.71;27.36;100795.11;109414;1262;72483;-89
2023/10/09 22:55:43;;;;;;;;;;;;;;;20.71;27.39;100797.25;109390;1263;67580;-88
2023/10/09 22:58:16;;;;;;;;;;;;;;;20.71;27.43;100793.98;109505;1262;67549;-88
2023/10/09 23:01:00;;;;;;;;;;;;;;;;;;;;;
2023/10/09 23:03:27;;;;;;;;;;;;;;;20.70;27.34;100789.14;109421;1262;82245;-88
2023/10/09 23:05:56;;;;;;;;;;;;;;;20.70;27.45;100789.96;109404;1262;72513;-89
2023/10/09 23:08:22;;;;;;;;;;;;;;;20.70;27.21;100787.55;109563;1262;67409;-89
2023/10/09 23:13:34;;;;;;;;;;;;;;;20.68;27.48;100793.83;109463;1264;75252;-89
2023/10/09 23:16:15;;;;;;;;;;;;;;;20.69;27.28;100799.67;108604;1263;556876;-88
2023/10/09 23:18:44;;;;;;;;;;;;;;;20.69;27.42;100798.39;109403;1262;71243;-88
2023/10/09 23:21:28;;;;;;;;;;;;;;;20.68;27.60;100799.86;109393;1262;67252;-88
2023/10/09 23:24:08;;;;;;;;;;;;;;;20.68;27.45;100800.42;109388;1263;67579;-87
2023/10/09 23:29:16;;;;;;;;;;;;;;;20.67;27.47;100803.28;109509;1262;82121;-89
2023/10/09 23:34:19;;;;;;;;;;;;;;;20.67;27.48;100801.55;109455;1264;67519;-88
2023/10/09 23:36:47;;;;;;;;;;;;;;;20.66;27.54;100798.63;109482;1262;67502;-89
2023/10/09 23:39:13;;;;;;;;;;;;;;;20.66;27.57;100794.43;109487;1263;75150;-89
2023/10/09 23:41:39;;;;;;;;;;;;;;;20.66;27.63;100791.40;109503;1263;67030;-88
2023/10/09 23:44:07;;;;;;;;;;;;;;;20.66;27.50;100797.69;109470;1263;67555;-89
2023/10/09 23:49:20;;;;;;;;;;;;;;;20.65;27.56;100798.61;108893;1265;552655;-89
2023/10/09 23:51:48;;;;;;;;;;;;;;;20.65;27.52;100799.17;109371;1263;74271;-89
2023/10/09 23:54:13;;;;;;;;;;;;;;;20.65;27.68;100796.20;109370;1264;83885;-89
2023/10/09 23:59:37;;;;;;;;;;;;;;;20.64;27.69;100794.16;109323;1263;67424;-89
